Pilot No. 4 — WDA5463 — position and weather

sailwx.info

Track history (hours):
 
Tides and Currents Weather Stations Pressure Air Temp Water Temp Dewpoint Dewpoint Depression Visibility Wind Speed Wind Dir Waves Ship Positions

Pilot No. 4

Owner: P E P Inc, FORT LAUDERDALE, FL. More information available from US FCC via Universal Licensing System and Coast Guard Vessel Documentation Center.

Last reported at 2015-Jul-27 11:20 UTC. Time now 2015-Jul-30 08:16 UTC.
Position N 26°06' W 080°07'.

MMSI: 495270931.

Date/timePositionNaut miles runAvg speedWind from/ knotsBaromVisibWave heightAir tempDewpointWater temp
2015-Jul-27 11:20N 26°06' W 080°07'1 1.1
2015-Jul-27 10:33N 26°05' W 080°07'2 1.7
2015-Jul-27 09:33N 26°06' W 080°05'1 0.3
2015-Jul-27 07:33N 26°05' W 080°05'2 2.4
2015-Jul-27 06:33N 26°06' W 080°07'0 0.4
2015-Jul-27 05:33N 26°06' W 080°07'1 0.2
2015-Jul-27 03:15N 26°06' W 080°07'4 6.1
2015-Jul-27 02:33N 26°08' W 080°03'3 0.6
2015-Jul-26 22:33N 26°06' W 080°05'2 2.5
2015-Jul-26 21:33N 26°04' W 080°07'4 4.3
2015-Jul-26 20:33N 26°07' W 080°03'4 0.4
2015-Jul-26 10:14N 26°06' W 080°07'1 1.6
2015-Jul-26 09:34N 26°05' W 080°07'0 0.3
2015-Jul-26 08:34N 26°05' W 080°07'0 0.4
2015-Jul-26 07:34N 26°05' W 080°07'1 0.8
2015-Jul-26 06:18N 26°06' W 080°07'0 0.0
2015-Jul-26 04:24N 26°06' W 080°07'2 1.9
2015-Jul-26 03:33N 26°06' W 080°06'1 1.4
2015-Jul-26 02:33N 26°05' W 080°07'2 2.1
2015-Jul-26 01:33N 26°06' W 080°05'0 0.2
2015-Jul-26 00:33N 26°06' W 080°05'2 0.8
2015-Jul-25 22:14N 26°06' W 080°07'1 0.9
2015-Jul-25 21:33N 26°06' W 080°07'0 0.1
2015-Jul-25 20:33N 26°06' W 080°07'1 0.1
2015-Jul-25 11:11N 26°06' W 080°07'1 1.1
2015-Jul-25 10:33N 26°05' W 080°07'3 3.0
2015-Jul-25 09:33N 26°06' W 080°04'1 0.7
2015-Jul-25 08:33N 26°05' W 080°04'1 0.7
2015-Jul-25 07:33N 26°06' W 080°05'2 0.2
2015-Jul-24 23:19N 26°06' W 080°07'1 1.2
2015-Jul-24 22:33N 26°05' W 080°07'4 3.9
2015-Jul-24 21:33N 26°06' W 080°03'2 2.0
2015-Jul-24 20:33N 26°06' W 080°05'2 1.5
2015-Jul-24 19:33N 26°07' W 080°03'3 0.4
2015-Jul-24 10:34N 26°06' W 080°07'0 0.4
2015-Jul-24 09:34N 26°06' W 080°07'2 2.2
2015-Jul-24 08:33N 26°06' W 080°05'1 1.2
2015-Jul-24 07:33N 26°06' W 080°06'1 0.8
2015-Jul-24 06:33N 26°06' W 080°05'1 1.0
2015-Jul-24 05:33N 26°06' W 080°06'1 0.6
2015-Jul-24 04:33N 26°06' W 080°07'0 0.1
2015-Jul-24 02:26N 26°06' W 080°07'1 0.2
2015-Jul-23 23:33N 26°06' W 080°07'0 0.3
2015-Jul-23 22:33N 26°06' W 080°07'1 1.3
2015-Jul-23 21:33N 26°06' W 080°06'0 0.0
2015-Jul-23 12:33N 26°06' W 080°05'1 1.1
2015-Jul-23 11:33N 26°06' W 080°07'1 0.6
2015-Jul-23 10:28N 26°06' W 080°07'2 2.0
2015-Jul-23 09:33N 26°06' W 080°05'1 0.5
2015-Jul-23 08:33N 26°06' W 080°06'1 1.2
2015-Jul-23 07:20N 26°06' W 080°07'1 1.0
2015-Jul-23 06:33N 26°06' W 080°07'0 0.4
2015-Jul-23 05:33N 26°05' W 080°07'0 0.0
2015-Jul-23 04:33N 26°05' W 080°07'1 0.4
2015-Jul-23 02:31N 26°06' W 080°07'2 0.3
2015-Jul-22 21:34N 26°06' W 080°05'1 0.1
2015-Jul-22 11:33N 26°06' W 080°04'3 2.8
2015-Jul-22 10:33N 26°04' W 080°07'3 2.7
2015-Jul-22 09:33N 26°06' W 080°04'2 2.3
2015-Jul-22 08:33N 26°05' W 080°07'1 0.9
2015-Jul-22 07:28N 26°06' W 080°07'2 2.5
2015-Jul-22 06:33N 26°06' W 080°05'2 1.8
2015-Jul-22 05:33N 26°06' W 080°07'1 0.5
2015-Jul-22 04:04N 26°06' W 080°07'1 1.4
2015-Jul-22 03:34N 26°06' W 080°07'1 0.2
2015-Jul-21 23:27N 26°06' W 080°07'0 0.5
2015-Jul-21 22:33N 26°06' W 080°07'0 0.5
2015-Jul-21 21:33N 26°06' W 080°07'1 0.8
2015-Jul-21 20:33N 26°06' W 080°07'0 0.4
2015-Jul-21 19:33N 26°06' W 080°07'1 0.1
2015-Jul-21 09:33N 26°06' W 080°07'2 1.7
2015-Jul-21 08:33N 26°04' W 080°07'3 2.8
2015-Jul-21 07:34N 26°06' W 080°04'2 2.3
2015-Jul-21 06:33N 26°05' W 080°07'0 0.1
2015-Jul-21 05:33N 26°05' W 080°07'1 0.3
2015-Jul-21 02:30N 26°06' W 080°07'2 1.7
2015-Jul-21 01:33N 26°06' W 080°05'1 0.3
2015-Jul-20 23:33N 26°06' W 080°06'0 0.4
2015-Jul-20 22:33N 26°06' W 080°07'1 0.6
2015-Jul-20 21:33N 26°05' W 080°07'2 1.5
2015-Jul-20 20:33N 26°06' W 080°05'2 0.2
2015-Jul-20 11:14N 26°06' W 080°07'1 2.0
2015-Jul-20 10:33N 26°06' W 080°06'4 3.7
2015-Jul-20 09:33N 26°05' W 080°02'2 1.6
2015-Jul-20 08:33N 26°06' W 080°04'4 0.9
2015-Jul-20 04:33N 26°04' W 080°07'2 1.6
2015-Jul-20 03:33N 26°06' W 080°07'0 0.1
2015-Jul-20 00:33N 26°06' W 080°07'1 0.3
2015-Jul-19 22:08N 26°06' W 080°07'1 1.3
2015-Jul-19 21:33N 26°05' W 080°07'0 0.3
2015-Jul-19 20:33N 26°05' W 080°07'1 0.1
2015-Jul-19 10:33N 26°06' W 080°07'1 0.7
2015-Jul-19 09:33N 26°05' W 080°07'0 0.3
2015-Jul-19 08:33N 26°05' W 080°07'4 4.1
2015-Jul-19 07:34N 26°06' W 080°03'4 4.0
2015-Jul-19 06:33N 26°06' W 080°07'1 1.2
2015-Jul-19 05:33N 26°05' W 080°07'2 0.2
2015-Jul-18 21:33N 26°06' W 080°07'1 0.5
2015-Jul-18 19:33N 26°05' W 080°07'0 0.1
2015-Jul-18 15:33N 26°05' W 080°07'1 0.2
2015-Jul-18 11:09N 26°06' W 080°07'3 4.7
2015-Jul-18 10:33N 26°06' W 080°04'2 2.3
2015-Jul-18 09:33N 26°06' W 080°07'1 0.5
2015-Jul-18 08:33N 26°05' W 080°07'1 1.0
2015-Jul-18 07:31N 26°06' W 080°07'1 0.8
2015-Jul-18 06:33N 26°05' W 080°07'1 1.0
2015-Jul-18 05:33N 26°06' W 080°06'1 0.6
2015-Jul-18 03:20N 26°06' W 080°07'1 1.0
2015-Jul-18 02:33N 26°05' W 080°07'1 0.1
2015-Jul-17 22:33N 26°06' W 080°06'3 2.7
2015-Jul-17 21:33N 26°06' W 080°03'4 3.5
2015-Jul-17 20:33N 26°06' W 080°07'0 0.0
2015-Jul-17 19:33N 26°06' W 080°07'0 0.2
2015-Jul-17 18:33N 26°06' W 080°07'2 2.1
2015-Jul-17 17:33N 26°04' W 080°07'3 3.2
2015-Jul-17 16:33N 26°05' W 080°03'2 2.4
2015-Jul-17 15:33N 26°06' W 080°06'1 1.5
2015-Jul-17 14:33N 26°06' W 080°07'3 2.7
2015-Jul-17 13:33N 26°05' W 080°05'2 2.4
2015-Jul-17 12:33N 26°06' W 080°07'0 0.2
2015-Jul-17 11:33N 26°06' W 080°07'  
Track history (hours):
 
Tides and Currents Weather Stations Pressure Air Temp Water Temp Dewpoint Dewpoint Depression Visibility Wind Speed Wind Dir Waves Ship Positions

Pilot No. 4

Owner: P E P Inc, FORT LAUDERDALE, FL. More information available from US FCC via Universal Licensing System and Coast Guard Vessel Documentation Center.

Last reported at 2015-Jul-27 11:20 UTC. Time now 2015-Jul-30 08:16 UTC.
Position N 26°06' W 080°07'.

MMSI: 495270931.

Date/timePositionNaut miles runAvg speedWind from/ knotsBaromVisibWave heightAir tempDewpointWater temp
2015-Jul-27 11:20N 26°06' W 080°07'1 1.1
2015-Jul-27 10:33N 26°05' W 080°07'2 1.7
2015-Jul-27 09:33N 26°06' W 080°05'1 0.3
2015-Jul-27 07:33N 26°05' W 080°05'2 2.4
2015-Jul-27 06:33N 26°06' W 080°07'0 0.4
2015-Jul-27 05:33N 26°06' W 080°07'1 0.2
2015-Jul-27 03:15N 26°06' W 080°07'4 6.1
2015-Jul-27 02:33N 26°08' W 080°03'3 0.6
2015-Jul-26 22:33N 26°06' W 080°05'2 2.5
2015-Jul-26 21:33N 26°04' W 080°07'4 4.3
2015-Jul-26 20:33N 26°07' W 080°03'4 0.4
2015-Jul-26 10:14N 26°06' W 080°07'1 1.6
2015-Jul-26 09:34N 26°05' W 080°07'0 0.3
2015-Jul-26 08:34N 26°05' W 080°07'0 0.4
2015-Jul-26 07:34N 26°05' W 080°07'1 0.8
2015-Jul-26 06:18N 26°06' W 080°07'0 0.0
2015-Jul-26 04:24N 26°06' W 080°07'2 1.9
2015-Jul-26 03:33N 26°06' W 080°06'1 1.4
2015-Jul-26 02:33N 26°05' W 080°07'2 2.1
2015-Jul-26 01:33N 26°06' W 080°05'0 0.2
2015-Jul-26 00:33N 26°06' W 080°05'2 0.8
2015-Jul-25 22:14N 26°06' W 080°07'1 0.9
2015-Jul-25 21:33N 26°06' W 080°07'0 0.1
2015-Jul-25 20:33N 26°06' W 080°07'1 0.1
2015-Jul-25 11:11N 26°06' W 080°07'1 1.1
2015-Jul-25 10:33N 26°05' W 080°07'3 3.0
2015-Jul-25 09:33N 26°06' W 080°04'1 0.7
2015-Jul-25 08:33N 26°05' W 080°04'1 0.7
2015-Jul-25 07:33N 26°06' W 080°05'2 0.2
2015-Jul-24 23:19N 26°06' W 080°07'1 1.2
2015-Jul-24 22:33N 26°05' W 080°07'4 3.9
2015-Jul-24 21:33N 26°06' W 080°03'2 2.0
2015-Jul-24 20:33N 26°06' W 080°05'2 1.5
2015-Jul-24 19:33N 26°07' W 080°03'3 0.4
2015-Jul-24 10:34N 26°06' W 080°07'0 0.4
2015-Jul-24 09:34N 26°06' W 080°07'2 2.2
2015-Jul-24 08:33N 26°06' W 080°05'1 1.2
2015-Jul-24 07:33N 26°06' W 080°06'1 0.8
2015-Jul-24 06:33N 26°06' W 080°05'1 1.0
2015-Jul-24 05:33N 26°06' W 080°06'1 0.6
2015-Jul-24 04:33N 26°06' W 080°07'0 0.1
2015-Jul-24 02:26N 26°06' W 080°07'1 0.2
2015-Jul-23 23:33N 26°06' W 080°07'0 0.3
2015-Jul-23 22:33N 26°06' W 080°07'1 1.3
2015-Jul-23 21:33N 26°06' W 080°06'0 0.0
2015-Jul-23 12:33N 26°06' W 080°05'1 1.1
2015-Jul-23 11:33N 26°06' W 080°07'1 0.6
2015-Jul-23 10:28N 26°06' W 080°07'2 2.0
2015-Jul-23 09:33N 26°06' W 080°05'1 0.5
2015-Jul-23 08:33N 26°06' W 080°06'1 1.2
2015-Jul-23 07:20N 26°06' W 080°07'1 1.0
2015-Jul-23 06:33N 26°06' W 080°07'0 0.4
2015-Jul-23 05:33N 26°05' W 080°07'0 0.0
2015-Jul-23 04:33N 26°05' W 080°07'1 0.4
2015-Jul-23 02:31N 26°06' W 080°07'2 0.3
2015-Jul-22 21:34N 26°06' W 080°05'1 0.1
2015-Jul-22 11:33N 26°06' W 080°04'3 2.8
2015-Jul-22 10:33N 26°04' W 080°07'3 2.7
2015-Jul-22 09:33N 26°06' W 080°04'2 2.3
2015-Jul-22 08:33N 26°05' W 080°07'1 0.9
2015-Jul-22 07:28N 26°06' W 080°07'2 2.5
2015-Jul-22 06:33N 26°06' W 080°05'2 1.8
2015-Jul-22 05:33N 26°06' W 080°07'1 0.5
2015-Jul-22 04:04N 26°06' W 080°07'1 1.4
2015-Jul-22 03:34N 26°06' W 080°07'1 0.2
2015-Jul-21 23:27N 26°06' W 080°07'0 0.5
2015-Jul-21 22:33N 26°06' W 080°07'0 0.5
2015-Jul-21 21:33N 26°06' W 080°07'1 0.8
2015-Jul-21 20:33N 26°06' W 080°07'0 0.4
2015-Jul-21 19:33N 26°06' W 080°07'1 0.1
2015-Jul-21 09:33N 26°06' W 080°07'2 1.7
2015-Jul-21 08:33N 26°04' W 080°07'3 2.8
2015-Jul-21 07:34N 26°06' W 080°04'2 2.3
2015-Jul-21 06:33N 26°05' W 080°07'0 0.1
2015-Jul-21 05:33N 26°05' W 080°07'1 0.3
2015-Jul-21 02:30N 26°06' W 080°07'2 1.7
2015-Jul-21 01:33N 26°06' W 080°05'1 0.3
2015-Jul-20 23:33N 26°06' W 080°06'0 0.4
2015-Jul-20 22:33N 26°06' W 080°07'1 0.6
2015-Jul-20 21:33N 26°05' W 080°07'2 1.5
2015-Jul-20 20:33N 26°06' W 080°05'2 0.2
2015-Jul-20 11:14N 26°06' W 080°07'1 2.0
2015-Jul-20 10:33N 26°06' W 080°06'4 3.7
2015-Jul-20 09:33N 26°05' W 080°02'2 1.6
2015-Jul-20 08:33N 26°06' W 080°04'4 0.9
2015-Jul-20 04:33N 26°04' W 080°07'2 1.6
2015-Jul-20 03:33N 26°06' W 080°07'0 0.1
2015-Jul-20 00:33N 26°06' W 080°07'1 0.3
2015-Jul-19 22:08N 26°06' W 080°07'1 1.3
2015-Jul-19 21:33N 26°05' W 080°07'0 0.3
2015-Jul-19 20:33N 26°05' W 080°07'1 0.1
2015-Jul-19 10:33N 26°06' W 080°07'1 0.7
2015-Jul-19 09:33N 26°05' W 080°07'0 0.3
2015-Jul-19 08:33N 26°05' W 080°07'4 4.1
2015-Jul-19 07:34N 26°06' W 080°03'4 4.0
2015-Jul-19 06:33N 26°06' W 080°07'1 1.2
2015-Jul-19 05:33N 26°05' W 080°07'2 0.2
2015-Jul-18 21:33N 26°06' W 080°07'1 0.5
2015-Jul-18 19:33N 26°05' W 080°07'0 0.1
2015-Jul-18 15:33N 26°05' W 080°07'1 0.2
2015-Jul-18 11:09N 26°06' W 080°07'3 4.7
2015-Jul-18 10:33N 26°06' W 080°04'2 2.3
2015-Jul-18 09:33N 26°06' W 080°07'1 0.5
2015-Jul-18 08:33N 26°05' W 080°07'1 1.0
2015-Jul-18 07:31N 26°06' W 080°07'1 0.8
2015-Jul-18 06:33N 26°05' W 080°07'1 1.0
2015-Jul-18 05:33N 26°06' W 080°06'1 0.6
2015-Jul-18 03:20N 26°06' W 080°07'1 1.0
2015-Jul-18 02:33N 26°05' W 080°07'1 0.1
2015-Jul-17 22:33N 26°06' W 080°06'3 2.7
2015-Jul-17 21:33N 26°06' W 080°03'4 3.5
2015-Jul-17 20:33N 26°06' W 080°07'0 0.0
2015-Jul-17 19:33N 26°06' W 080°07'0 0.2
2015-Jul-17 18:33N 26°06' W 080°07'2 2.1
2015-Jul-17 17:33N 26°04' W 080°07'3 3.2
2015-Jul-17 16:33N 26°05' W 080°03'2 2.4
2015-Jul-17 15:33N 26°06' W 080°06'1 1.5
2015-Jul-17 14:33N 26°06' W 080°07'3 2.7
2015-Jul-17 13:33N 26°05' W 080°05'2 2.4
2015-Jul-17 12:33N 26°06' W 080°07'0 0.2
2015-Jul-17 11:33N 26°06' W 080°07'  

Dump ship's entire track history